createdAt,value
2023-03-05T00:01:24.856Z,8.40
2023-03-05T00:03:53.461Z,7.95
2023-03-05T00:06:21.612Z,8.50
2023-03-05T00:08:49.563Z,8.82
2023-03-05T00:11:17.595Z,8.40
2023-03-05T00:13:45.232Z,8.45
2023-03-05T00:16:16.659Z,9.00
2023-03-05T00:18:44.830Z,8.33
2023-03-05T00:21:20.173Z,8.57
2023-03-05T00:23:47.935Z,8.88
2023-03-05T00:26:15.629Z,8.40
2023-03-05T00:28:43.496Z,8.10
2023-03-05T00:31:11.150Z,8.80
2023-03-05T00:33:40.146Z,8.00
2023-03-05T00:36:08.864Z,8.40
2023-03-05T00:38:36.656Z,8.30
2023-03-05T00:41:04.642Z,8.13
2023-03-05T00:43:32.463Z,8.27
2023-03-05T00:46:00.099Z,8.27
2023-03-05T00:48:27.886Z,8.82
2023-03-05T00:50:57.186Z,8.30
2023-03-05T00:53:24.876Z,8.48
2023-03-05T00:55:52.607Z,8.35
2023-03-05T00:58:20.187Z,8.85
2023-03-05T01:00:50.457Z,8.48
2023-03-05T01:03:18.216Z,8.43
2023-03-05T01:05:46.354Z,8.70
2023-03-05T01:08:15.897Z,8.50
2023-03-05T01:10:43.559Z,8.80
2023-03-05T01:13:11.152Z,8.65
2023-03-05T01:15:38.807Z,8.82
2023-03-05T01:18:06.795Z,8.73
2023-03-05T01:20:34.361Z,8.75
2023-03-05T01:23:02.121Z,8.50
2023-03-05T01:25:31.128Z,8.60
2023-03-05T01:27:58.885Z,8.55
2023-03-05T01:30:26.432Z,8.60
2023-03-05T01:32:54.111Z,8.90
2023-03-05T01:35:25.029Z,9.37
2023-03-05T01:38:18.692Z,8.70
2023-03-05T01:40:47.891Z,9.02
2023-03-05T01:43:27.940Z,8.55
2023-03-05T01:46:29.074Z,9.00
2023-03-05T01:49:02.729Z,9.05
2023-03-05T01:51:36.301Z,9.02
2023-03-05T01:54:05.910Z,9.20
2023-03-05T01:56:35.288Z,9.13
2023-03-05T01:59:04.455Z,8.98
2023-03-05T02:01:37.809Z,9.52
2023-03-05T02:04:06.556Z,9.13
2023-03-05T02:06:34.881Z,8.93
2023-03-05T02:09:02.548Z,9.23
2023-03-05T02:11:30.624Z,9.30
2023-03-05T02:13:59.812Z,9.10
2023-03-05T02:16:29.171Z,9.18
2023-03-05T02:18:57.007Z,9.65
2023-03-05T02:21:39.029Z,10.15
2023-03-05T02:24:07.492Z,9.27
2023-03-05T02:26:35.463Z,9.07
2023-03-05T02:29:06.473Z,9.63
2023-03-05T02:31:34.286Z,9.50
2023-03-05T02:34:01.994Z,9.65
2023-03-05T02:36:30.959Z,9.05
2023-03-05T02:38:59.106Z,9.50
2023-03-05T02:41:27.313Z,9.45
2023-03-05T02:43:54.986Z,9.20
2023-03-05T02:46:22.615Z,9.70
2023-03-05T02:48:50.862Z,9.80
2023-03-05T02:51:18.981Z,9.13
2023-03-05T02:53:47.976Z,9.98
2023-03-05T02:56:15.571Z,10.18
2023-03-05T02:58:43.243Z,9.73
2023-03-05T03:01:11.626Z,9.93
2023-03-05T03:03:39.566Z,9.93
2023-03-05T03:06:08.763Z,10.05
2023-03-05T03:08:37.562Z,9.95
2023-03-05T03:11:09.358Z,10.02
2023-03-05T03:13:37.230Z,10.20
2023-03-05T03:16:05.929Z,10.23
2023-03-05T03:18:33.782Z,9.80
2023-03-05T03:21:01.792Z,10.53
2023-03-05T03:23:29.432Z,10.15
2023-03-05T03:25:57.092Z,9.73
2023-03-05T03:28:26.657Z,9.90
2023-03-05T03:30:54.420Z,9.88
2023-03-05T03:33:22.391Z,10.23
2023-03-05T03:35:50.094Z,10.10
2023-03-05T03:38:17.721Z,10.37
2023-03-05T03:40:45.394Z,11.05
2023-03-05T03:43:13.035Z,10.48
2023-03-05T03:45:48.728Z,10.45
2023-03-05T03:48:16.592Z,10.25
2023-03-05T03:50:45.203Z,10.43
2023-03-05T03:53:14.187Z,10.98
2023-03-05T03:55:43.251Z,10.63
2023-03-05T03:58:11.308Z,10.87
2023-03-05T04:00:39.925Z,11.00
2023-03-05T04:03:09.000Z,11.32
2023-03-05T04:05:36.679Z,11.37
2023-03-05T04:08:04.586Z,11.18
2023-03-05T04:10:32.209Z,11.55
2023-03-05T04:12:59.830Z,11.80
2023-03-05T04:15:27.463Z,11.40
2023-03-05T04:17:55.158Z,11.55
2023-03-05T04:20:24.163Z,10.98
2023-03-05T04:22:51.798Z,11.40
2023-03-05T04:25:19.388Z,12.05
2023-03-05T04:27:47.003Z,11.43
2023-03-05T04:30:16.017Z,12.45
2023-03-05T04:32:43.661Z,11.77
2023-03-05T04:35:12.123Z,12.27
2023-03-05T04:37:41.414Z,11.60
2023-03-05T04:40:10.098Z,11.73
2023-03-05T04:42:37.741Z,11.30
2023-03-05T04:45:06.742Z,11.90
2023-03-05T04:47:34.818Z,11.63
2023-03-05T04:50:02.481Z,11.70
2023-03-05T04:52:30.240Z,12.35
2023-03-05T04:54:59.281Z,12.33
2023-03-05T04:57:27.035Z,12.02
2023-03-05T04:59:54.681Z,11.50
2023-03-05T05:02:22.378Z,12.70
2023-03-05T05:04:53.495Z,11.93
2023-03-05T05:07:21.287Z,12.20
2023-03-05T05:09:48.907Z,12.48
2023-03-05T05:12:17.957Z,12.30
2023-03-05T05:14:45.524Z,12.00
2023-03-05T05:17:13.101Z,12.70
2023-03-05T05:19:40.768Z,12.38
2023-03-05T05:22:08.732Z,12.52
2023-03-05T05:24:36.429Z,12.30
2023-03-05T05:27:04.266Z,12.10
2023-03-05T05:29:33.280Z,12.15
2023-03-05T05:32:00.974Z,11.55
2023-03-05T05:34:28.619Z,11.73
2023-03-05T05:36:56.209Z,10.82
2023-03-05T05:39:23.797Z,11.70
2023-03-05T05:41:52.199Z,11.15
2023-03-05T05:44:20.312Z,10.95
2023-03-05T05:46:49.406Z,10.57
2023-03-05T05:49:17.003Z,10.13
2023-03-05T05:51:44.749Z,10.70
2023-03-05T05:54:14.365Z,10.63
2023-03-05T05:56:42.313Z,11.18
2023-03-05T05:59:12.187Z,10.32
2023-03-05T06:01:40.021Z,10.15
2023-03-05T06:04:09.131Z,10.25
2023-03-05T06:06:36.810Z,10.35
2023-03-05T06:09:05.354Z,10.35
2023-03-05T06:11:33.956Z,10.27
2023-03-05T06:14:02.890Z,10.43
2023-03-05T06:16:30.969Z,10.52
2023-03-05T06:18:58.976Z,10.10
2023-03-05T06:21:28.001Z,10.63
2023-03-05T06:23:55.676Z,10.27
2023-03-05T06:26:23.984Z,10.45
2023-03-05T06:28:53.255Z,9.73
2023-03-05T06:31:25.620Z,9.77
2023-03-05T06:33:54.819Z,10.10
2023-03-05T06:36:24.134Z,9.80
2023-03-05T06:38:53.672Z,10.02
2023-03-05T06:41:23.197Z,10.40
2023-03-05T06:43:51.229Z,9.85
2023-03-05T06:46:20.894Z,11.37
2023-03-05T06:48:50.015Z,10.70
2023-03-05T06:51:19.650Z,9.93
2023-03-05T06:53:49.485Z,9.75
2023-03-05T06:56:19.499Z,10.23
2023-03-05T06:58:49.234Z,10.30
2023-03-05T07:01:17.965Z,9.63
2023-03-05T07:03:46.071Z,9.82
2023-03-05T07:06:15.847Z,9.60
2023-03-05T07:08:44.710Z,9.80
2023-03-05T07:11:13.497Z,10.07
2023-03-05T07:13:43.401Z,9.02
2023-03-05T07:16:14.513Z,9.48
2023-03-05T07:18:42.553Z,9.18
2023-03-05T07:21:13.167Z,9.20
2023-03-05T07:23:40.776Z,9.10
2023-03-05T07:26:08.550Z,9.27
2023-03-05T07:28:36.258Z,9.20
2023-03-05T07:31:07.988Z,8.93
2023-03-05T07:33:37.094Z,8.10
2023-03-05T07:36:05.291Z,8.50
2023-03-05T07:38:33.332Z,8.25
2023-03-05T07:41:03.407Z,7.57
2023-03-05T07:43:31.065Z,7.70
2023-03-05T07:45:58.763Z,7.88
2023-03-05T07:48:27.856Z,7.65
2023-03-05T07:51:02.147Z,8.20
2023-03-05T07:53:29.909Z,7.90
2023-03-05T07:55:57.682Z,7.53
2023-03-05T07:58:25.363Z,7.53
2023-03-05T08:00:53.025Z,7.78
2023-03-05T08:03:20.688Z,7.43
2023-03-05T08:05:49.680Z,7.80
2023-03-05T08:08:17.573Z,8.03
2023-03-05T08:10:45.401Z,7.77
2023-03-05T08:13:13.109Z,7.13
2023-03-05T08:15:40.972Z,7.32
2023-03-05T08:18:08.776Z,7.55
2023-03-05T08:20:37.257Z,6.88
2023-03-05T08:23:06.248Z,7.10
2023-03-05T08:25:33.882Z,6.78
2023-03-05T08:28:01.557Z,9.05
2023-03-05T08:30:29.319Z,7.38
2023-03-05T08:32:57.398Z,6.45
2023-03-05T08:35:25.431Z,7.68
2023-03-05T08:37:53.150Z,7.45
2023-03-05T08:40:22.180Z,6.88
2023-03-05T08:42:51.903Z,7.75
2023-03-05T08:45:19.658Z,6.95
2023-03-05T08:47:47.406Z,7.40
2023-03-05T08:50:15.082Z,6.43
2023-03-05T08:52:42.707Z,6.78
2023-03-05T08:55:12.597Z,6.57
2023-03-05T08:57:41.611Z,6.68
2023-03-05T09:00:12.570Z,7.88
2023-03-05T09:02:40.405Z,9.05
2023-03-05T09:05:09.171Z,14.98
2023-03-05T09:07:37.784Z,9.00
2023-03-05T09:10:06.848Z,9.80
2023-03-05T09:12:34.517Z,8.80
2023-03-05T09:15:03.535Z,9.25
2023-03-05T09:17:31.286Z,6.85
2023-03-05T09:19:58.908Z,8.40
2023-03-05T09:22:26.635Z,9.25
2023-03-05T09:24:54.546Z,7.10
2023-03-05T09:27:22.600Z,6.97
2023-03-05T09:29:52.507Z,8.13
2023-03-05T09:32:21.617Z,7.68
2023-03-05T09:34:49.263Z,7.20
2023-03-05T09:37:16.921Z,6.90
2023-03-05T09:39:44.677Z,9.68
2023-03-05T09:42:29.302Z,6.80
2023-03-05T09:45:10.794Z,7.57
2023-03-05T09:47:50.553Z,6.70
2023-03-05T09:50:33.803Z,6.40
2023-03-05T09:53:06.039Z,6.60
2023-03-05T09:55:40.414Z,6.65
2023-03-05T09:58:14.585Z,6.15
2023-03-05T10:00:45.171Z,7.03
2023-03-05T10:03:20.571Z,6.40
2023-03-05T10:06:12.003Z,6.30
2023-03-05T10:08:52.296Z,5.18
2023-03-05T10:11:38.547Z,5.50
2023-03-05T10:14:08.242Z,5.30
2023-03-05T10:16:54.096Z,4.85
2023-03-05T10:19:40.855Z,4.40
2023-03-05T10:22:17.053Z,8.85
2023-03-05T10:24:57.434Z,4.53
2023-03-05T10:27:40.732Z,4.68
2023-03-05T10:30:24.508Z,31.17
2023-03-05T10:33:00.776Z,33.90
2023-03-05T10:35:50.245Z,4.10
2023-03-05T10:38:37.355Z,5.47
2023-03-05T10:41:14.795Z,7.57
2023-03-05T10:43:50.784Z,4.38
2023-03-05T10:46:21.955Z,5.10
2023-03-05T10:48:54.308Z,3.77
2023-03-05T10:51:30.671Z,3.67
2023-03-05T10:54:00.710Z,3.75
2023-03-05T10:56:31.820Z,3.53
2023-03-05T10:58:59.670Z,5.30
2023-03-05T11:01:29.490Z,3.97
2023-03-05T11:03:59.253Z,4.07
2023-03-05T11:06:46.666Z,4.55
2023-03-05T11:09:18.724Z,3.60
2023-03-05T11:12:02.669Z,3.30
2023-03-05T11:14:33.332Z,3.22
2023-03-05T11:17:02.412Z,3.00
2023-03-05T11:19:33.087Z,4.10
2023-03-05T11:22:16.872Z,3.25
2023-03-05T11:24:46.566Z,3.15
2023-03-05T11:27:31.643Z,3.35
2023-03-05T11:29:59.771Z,14.65
2023-03-05T11:32:29.814Z,3.00
2023-03-05T11:34:58.241Z,6.10
2023-03-05T11:37:29.498Z,3.55
2023-03-05T11:40:19.026Z,2.70
2023-03-05T11:42:56.939Z,2.70
2023-03-05T11:45:25.910Z,2.97
2023-03-05T11:47:56.999Z,2.75
2023-03-05T11:50:27.631Z,4.20
2023-03-05T11:52:59.097Z,3.53
2023-03-05T11:55:31.007Z,4.22
2023-03-05T11:58:18.385Z,2.90
2023-03-05T12:00:48.279Z,3.00
2023-03-05T12:03:20.005Z,3.00
2023-03-05T12:05:50.683Z,3.00
2023-03-05T12:08:25.617Z,3.15
2023-03-05T12:10:53.808Z,10.53
2023-03-05T12:13:28.328Z,6.75
2023-03-05T12:16:07.417Z,6.53
2023-03-05T12:18:43.437Z,4.80
2023-03-05T12:21:18.850Z,9.10
2023-03-05T12:23:51.322Z,5.18
2023-03-05T12:26:19.803Z,3.40
2023-03-05T12:28:56.852Z,5.68
2023-03-05T12:31:37.772Z,5.80
2023-03-05T12:34:51.409Z,12.13
2023-03-05T12:38:25.691Z,15.23
2023-03-05T12:41:34.277Z,3.95
2023-03-05T12:44:19.359Z,8.98
2023-03-05T12:47:02.439Z,4.65
2023-03-05T12:49:30.729Z,4.10
2023-03-05T12:52:00.058Z,3.50
2023-03-05T12:54:34.384Z,3.03
2023-03-05T12:57:07.190Z,2.88
2023-03-05T12:59:43.979Z,3.22
2023-03-05T13:02:22.853Z,3.05
2023-03-05T13:04:53.118Z,3.60
2023-03-05T13:07:20.857Z,6.40
2023-03-05T13:09:59.016Z,8.57
2023-03-05T13:12:30.704Z,13.20
2023-03-05T13:15:01.078Z,3.80
2023-03-05T13:17:32.554Z,3.65
2023-03-05T13:20:01.472Z,3.88
2023-03-05T13:22:30.591Z,3.70
2023-03-05T13:25:20.597Z,3.15
2023-03-05T13:27:49.630Z,3.47
2023-03-05T13:30:25.339Z,3.60
2023-03-05T13:32:55.928Z,3.85
2023-03-05T13:35:24.056Z,4.20
2023-03-05T13:37:52.061Z,3.47
2023-03-05T13:40:23.360Z,3.58
2023-03-05T13:42:54.262Z,3.35
2023-03-05T13:45:26.177Z,3.70
2023-03-05T13:47:56.172Z,3.25
2023-03-05T13:50:27.009Z,3.72
2023-03-05T13:52:55.115Z,3.72
2023-03-05T13:55:23.099Z,3.50
2023-03-05T13:57:53.894Z,3.90
2023-03-05T14:00:34.567Z,22.10
2023-03-05T14:03:10.813Z,21.00
2023-03-05T14:05:43.606Z,10.10
2023-03-05T14:08:21.705Z,14.23
2023-03-05T14:10:49.808Z,5.18
2023-03-05T14:13:23.581Z,4.82
2023-03-05T14:16:05.530Z,6.00
2023-03-05T14:18:33.568Z,3.78
2023-03-05T14:21:07.557Z,8.55
2023-03-05T14:23:41.560Z,6.95
2023-03-05T14:26:23.878Z,26.70
2023-03-05T14:28:55.456Z,19.98
2023-03-05T14:31:25.235Z,30.23
2023-03-05T14:33:54.357Z,11.40
2023-03-05T14:36:25.486Z,10.25
2023-03-05T14:38:54.598Z,23.77
2023-03-05T14:41:40.194Z,21.27
2023-03-05T14:44:15.230Z,7.70
2023-03-05T14:46:43.516Z,8.00
2023-03-05T14:49:11.296Z,32.97
2023-03-05T14:51:41.608Z,22.23
2023-03-05T14:54:19.754Z,8.60
2023-03-05T14:56:47.954Z,12.98
2023-03-05T14:59:16.982Z,64.28
2023-03-05T15:01:45.015Z,16.88
2023-03-05T15:04:15.478Z,16.33
2023-03-05T15:06:48.015Z,4.00
2023-03-05T15:09:17.711Z,4.27
2023-03-05T15:11:45.625Z,5.55
2023-03-05T15:14:13.301Z,3.70
2023-03-05T15:16:45.058Z,4.05
2023-03-05T15:19:13.515Z,3.42
2023-03-05T15:21:41.545Z,3.65
2023-03-05T15:24:11.292Z,3.85
2023-03-05T15:26:39.417Z,3.90
2023-03-05T15:29:07.143Z,4.18
2023-03-05T15:31:38.408Z,3.45
2023-03-05T15:34:08.064Z,4.43
2023-03-05T15:36:35.744Z,3.80
2023-03-05T15:39:03.400Z,4.32
2023-03-05T15:41:31.019Z,4.78
2023-03-05T15:43:58.629Z,4.30
2023-03-05T15:46:26.307Z,4.97
2023-03-05T15:48:54.047Z,6.60
2023-03-05T15:51:23.081Z,4.28
2023-03-05T15:53:50.706Z,9.55
2023-03-05T15:56:19.340Z,27.83
2023-03-05T15:58:49.481Z,6.53
2023-03-05T16:01:19.177Z,4.50
2023-03-05T16:03:47.031Z,5.25
2023-03-05T16:06:16.500Z,4.00
2023-03-05T16:08:45.538Z,4.70
2023-03-05T16:11:14.115Z,4.88
2023-03-05T16:13:43.076Z,5.00
2023-03-05T16:16:11.390Z,6.43
2023-03-05T16:18:42.843Z,6.93
2023-03-05T16:21:11.394Z,6.00
2023-03-05T16:23:39.146Z,4.72
2023-03-05T16:26:09.060Z,10.95
2023-03-05T16:28:36.661Z,12.00
2023-03-05T16:31:04.461Z,13.00
2023-03-05T16:33:32.117Z,11.73
2023-03-05T16:36:25.339Z,5.43
2023-03-05T16:38:55.327Z,4.10
2023-03-05T16:41:26.612Z,5.07
2023-03-05T16:43:56.340Z,5.00
2023-03-05T16:46:24.470Z,4.57
2023-03-05T16:48:52.209Z,5.90
2023-03-05T16:51:20.890Z,11.37
2023-03-05T16:53:48.740Z,12.07
2023-03-05T16:56:16.457Z,29.60
2023-03-05T16:58:45.503Z,32.03
2023-03-05T17:01:15.401Z,23.80
2023-03-05T17:03:44.029Z,42.92
2023-03-05T17:06:14.013Z,73.30
2023-03-05T17:08:42.859Z,28.98
2023-03-05T17:11:12.336Z,30.83
2023-03-05T17:13:40.774Z,12.73
2023-03-05T17:16:11.811Z,23.15
2023-03-05T17:18:39.817Z,11.88
2023-03-05T17:21:08.139Z,7.40
2023-03-05T17:23:36.254Z,9.43
2023-03-05T17:26:05.105Z,16.57
2023-03-05T17:28:33.125Z,21.20
2023-03-05T17:31:01.404Z,46.27
2023-03-05T17:33:31.132Z,27.48
2023-03-05T17:35:58.971Z,33.17
2023-03-05T17:38:27.324Z,47.93
2023-03-05T17:40:55.258Z,13.25
2023-03-05T17:43:23.732Z,41.42
2023-03-05T17:45:51.549Z,25.25
2023-03-05T17:48:19.240Z,15.65
2023-03-05T17:50:48.231Z,13.15
2023-03-05T17:53:15.900Z,11.30
2023-03-05T17:55:44.019Z,7.82
2023-03-05T17:58:11.772Z,10.90
2023-03-05T18:00:39.604Z,12.38
2023-03-05T18:03:07.316Z,31.85
2023-03-05T18:05:35.393Z,8.55
2023-03-05T18:08:05.081Z,8.70
2023-03-05T18:10:33.380Z,11.90
2023-03-05T18:13:01.535Z,6.93
2023-03-05T18:15:30.496Z,7.75
2023-03-05T18:17:58.587Z,7.78
2023-03-05T18:20:30.197Z,8.60
2023-03-05T18:22:59.369Z,14.45
2023-03-05T18:25:31.274Z,27.70
2023-03-05T18:28:00.123Z,17.85
2023-03-05T18:30:29.123Z,11.07
2023-03-05T18:32:57.216Z,7.03
2023-03-05T18:35:25.086Z,6.20
2023-03-05T18:37:52.879Z,12.00
2023-03-05T18:40:22.690Z,12.02
2023-03-05T18:42:51.913Z,5.05
2023-03-05T18:45:22.533Z,4.70
2023-03-05T18:47:54.039Z,5.82
2023-03-05T18:50:23.071Z,4.97
2023-03-05T18:52:50.814Z,5.47
2023-03-05T18:55:20.281Z,7.18
2023-03-05T18:57:49.172Z,5.78
2023-03-05T19:00:20.373Z,9.38
2023-03-05T19:02:48.072Z,10.35
2023-03-05T19:05:16.732Z,6.70
2023-03-05T19:07:44.768Z,9.13
2023-03-05T19:10:14.289Z,9.63
2023-03-05T19:12:49.768Z,6.10
2023-03-05T19:15:19.197Z,9.98
2023-03-05T19:17:47.794Z,5.63
2023-03-05T19:20:17.021Z,6.13
2023-03-05T19:22:45.136Z,33.53
2023-03-05T19:25:13.702Z,17.13
2023-03-05T19:27:41.425Z,7.33
2023-03-05T19:30:12.758Z,6.03
2023-03-05T19:32:41.864Z,7.35
2023-03-05T19:35:10.530Z,8.80
2023-03-05T19:37:38.247Z,55.75
2023-03-05T19:40:07.176Z,48.70
2023-03-05T19:42:36.176Z,54.00
2023-03-05T19:45:04.070Z,13.63
2023-03-05T19:47:31.841Z,19.17
2023-03-05T19:50:00.940Z,24.90
2023-03-05T19:52:28.777Z,13.00
2023-03-05T19:54:56.968Z,19.83
2023-03-05T19:57:24.861Z,17.63
2023-03-05T19:59:53.490Z,39.83
2023-03-05T20:02:22.004Z,42.17
2023-03-05T20:04:49.971Z,13.93
2023-03-05T20:07:19.798Z,34.88
2023-03-05T20:09:48.852Z,21.95
2023-03-05T20:12:16.668Z,36.20
2023-03-05T20:14:44.325Z,35.20
2023-03-05T20:17:12.108Z,16.50
2023-03-05T20:19:39.896Z,33.88
2023-03-05T20:22:07.650Z,16.95
2023-03-05T20:24:37.302Z,25.70
2023-03-05T20:27:05.204Z,18.80
2023-03-05T20:29:32.947Z,37.70
2023-03-05T20:32:02.618Z,30.52
2023-03-05T20:34:31.437Z,30.00
2023-03-05T20:36:59.377Z,13.65
2023-03-05T20:39:27.230Z,22.00
2023-03-05T20:41:56.330Z,8.88
2023-03-05T20:44:24.304Z,5.63
2023-03-05T20:47:02.746Z,10.45
2023-03-05T20:49:30.516Z,6.57
2023-03-05T20:51:58.240Z,13.13
2023-03-05T20:54:27.296Z,6.10
2023-03-05T20:56:56.563Z,6.50
2023-03-05T20:59:24.753Z,8.27
2023-03-05T21:01:52.496Z,7.80
2023-03-05T21:04:20.300Z,9.38
2023-03-05T21:06:52.515Z,17.27
2023-03-05T21:09:20.102Z,14.63
2023-03-05T21:11:47.893Z,16.98
2023-03-05T21:14:16.913Z,18.27
2023-03-05T21:16:44.638Z,10.50
2023-03-05T21:19:12.359Z,9.80
2023-03-05T21:21:44.680Z,10.50
2023-03-05T21:24:12.684Z,8.82
2023-03-05T21:26:40.273Z,10.82
2023-03-05T21:29:07.952Z,6.45
2023-03-05T21:31:37.394Z,5.73
2023-03-05T21:34:05.121Z,6.10
2023-03-05T21:36:32.757Z,5.40
2023-03-05T21:39:00.696Z,5.80
2023-03-05T21:41:28.540Z,5.72
2023-03-05T21:43:56.266Z,5.30
2023-03-05T21:46:23.880Z,5.20
2023-03-05T21:48:53.073Z,5.03
2023-03-05T21:51:26.727Z,5.40
2023-03-05T21:53:54.594Z,5.53
2023-03-05T21:56:24.420Z,5.30
2023-03-05T21:58:52.736Z,5.28
2023-03-05T22:01:21.387Z,6.90
2023-03-05T22:03:50.430Z,6.13
2023-03-05T22:06:20.534Z,5.15
2023-03-05T22:08:48.630Z,5.10
2023-03-05T22:11:17.919Z,4.72
2023-03-05T22:13:45.788Z,5.00
2023-03-05T22:16:22.004Z,5.40
2023-03-05T22:18:49.621Z,5.95
2023-03-05T22:21:21.642Z,5.80
2023-03-05T22:23:49.729Z,6.13
2023-03-05T22:26:17.783Z,5.90
2023-03-05T22:28:45.548Z,5.63
2023-03-05T22:31:20.703Z,5.65
2023-03-05T22:33:48.532Z,5.90
2023-03-05T22:36:16.136Z,7.03
2023-03-05T22:38:45.521Z,5.72
2023-03-05T22:41:15.162Z,6.57
2023-03-05T22:43:43.051Z,6.00
2023-03-05T22:46:11.610Z,5.65
2023-03-05T22:48:39.542Z,6.15
2023-03-05T22:51:07.823Z,7.10
2023-03-05T22:53:35.692Z,15.18
2023-03-05T22:56:08.561Z,9.55
2023-03-05T22:58:36.912Z,7.05
2023-03-05T23:01:11.364Z,5.90
2023-03-05T23:03:39.106Z,5.65
2023-03-05T23:06:07.545Z,7.45
2023-03-05T23:08:35.650Z,5.85
2023-03-05T23:11:10.657Z,6.93
2023-03-05T23:13:38.413Z,5.78
2023-03-05T23:16:06.776Z,5.75
2023-03-05T23:18:34.792Z,6.50
2023-03-05T23:21:02.410Z,5.65
2023-03-05T23:23:30.210Z,6.10
2023-03-05T23:25:57.919Z,7.30
2023-03-05T23:28:26.995Z,7.15
2023-03-05T23:30:54.722Z,6.63
2023-03-05T23:33:24.722Z,5.95
2023-03-05T23:35:54.400Z,5.63
2023-03-05T23:38:23.482Z,5.60
2023-03-05T23:40:53.879Z,9.15
2023-03-05T23:43:24.511Z,6.82
2023-03-05T23:45:54.979Z,5.40
2023-03-05T23:48:23.728Z,5.47
2023-03-05T23:50:51.704Z,5.43
2023-03-05T23:53:21.434Z,5.28
2023-03-05T23:55:49.551Z,5.37
2023-03-05T23:58:18.929Z,5.30
